createdAt,value
2023-04-29T00:02:06.787Z,13.80
2023-04-29T00:04:35.329Z,14.57
2023-04-29T00:07:03.043Z,14.15
2023-04-29T00:09:30.657Z,13.38
2023-04-29T00:11:58.660Z,13.88
2023-04-29T00:14:26.164Z,14.15
2023-04-29T00:16:53.715Z,12.80
2023-04-29T00:19:21.442Z,13.77
2023-04-29T00:21:49.471Z,13.93
2023-04-29T00:24:17.286Z,14.40
2023-04-29T00:26:44.856Z,13.68
2023-04-29T00:29:12.473Z,13.88
2023-04-29T00:31:40.063Z,14.10
2023-04-29T00:34:07.604Z,13.75
2023-04-29T00:36:35.131Z,13.57
2023-04-29T00:39:03.192Z,14.30
2023-04-29T00:41:32.205Z,14.48
2023-04-29T00:43:59.762Z,14.55
2023-04-29T00:46:27.933Z,15.65
2023-04-29T00:48:55.508Z,13.93
2023-04-29T00:51:23.205Z,14.98
2023-04-29T00:53:50.925Z,14.82
2023-04-29T00:56:21.521Z,14.55
2023-04-29T00:58:52.808Z,15.82
2023-04-29T01:01:21.961Z,15.70
2023-04-29T01:03:51.054Z,15.15
2023-04-29T01:06:33.507Z,13.57
2023-04-29T01:09:17.938Z,14.48
2023-04-29T01:12:07.199Z,14.95
2023-04-29T01:14:35.949Z,13.88
2023-04-29T01:17:11.477Z,13.30
2023-04-29T01:19:46.108Z,13.25
2023-04-29T01:22:18.888Z,13.93
2023-04-29T01:24:46.869Z,13.65
2023-04-29T01:27:34.658Z,12.77
2023-04-29T01:30:32.452Z,14.65
2023-04-29T01:33:47.930Z,17.02
2023-04-29T01:36:28.188Z,16.92
2023-04-29T01:39:14.585Z,16.13
2023-04-29T01:42:06.879Z,15.93
2023-04-29T01:44:36.250Z,18.23
2023-04-29T01:47:04.104Z,17.65
2023-04-29T01:49:36.446Z,16.70
2023-04-29T01:52:04.104Z,17.42
2023-04-29T01:54:32.259Z,17.27
2023-04-29T01:57:00.905Z,16.17
2023-04-29T01:59:30.217Z,17.08
2023-04-29T02:01:59.124Z,14.73
2023-04-29T02:04:28.854Z,13.30
2023-04-29T02:06:56.365Z,14.05
2023-04-29T02:09:23.881Z,13.38
2023-04-29T02:11:51.406Z,13.05
2023-04-29T02:14:18.899Z,13.65
2023-04-29T02:16:46.476Z,13.15
2023-04-29T02:19:14.168Z,12.55
2023-04-29T02:21:41.694Z,12.27
2023-04-29T02:24:09.506Z,13.07
2023-04-29T02:26:38.614Z,13.93
2023-04-29T02:29:06.357Z,13.07
2023-04-29T02:31:33.887Z,12.80
2023-04-29T02:34:01.733Z,13.48
2023-04-29T02:36:29.333Z,14.25
2023-04-29T02:38:57.222Z,13.80
2023-04-29T02:41:25.996Z,13.52
2023-04-29T02:43:53.806Z,14.45
2023-04-29T02:46:21.394Z,14.50
2023-04-29T02:48:48.874Z,15.55
2023-04-29T02:51:18.004Z,14.80
2023-04-29T02:53:45.689Z,14.18
2023-04-29T02:56:13.212Z,14.57
2023-04-29T02:58:42.285Z,14.85
2023-04-29T03:01:09.767Z,15.95
2023-04-29T03:03:37.859Z,15.90
2023-04-29T03:06:05.648Z,14.38
2023-04-29T03:08:33.347Z,14.05
2023-04-29T03:11:00.846Z,13.88
2023-04-29T03:13:28.450Z,13.82
2023-04-29T03:15:58.766Z,14.02
2023-04-29T03:18:26.288Z,13.38
2023-04-29T03:20:54.400Z,12.95
2023-04-29T03:23:22.660Z,12.82
2023-04-29T03:25:50.233Z,12.68
2023-04-29T03:28:18.054Z,12.27
2023-04-29T03:30:45.623Z,12.93
2023-04-29T03:33:13.131Z,12.23
2023-04-29T03:35:40.842Z,11.77
2023-04-29T03:38:08.360Z,12.55
2023-04-29T03:40:35.990Z,12.48
2023-04-29T03:43:04.108Z,13.05
2023-04-29T03:45:31.732Z,14.20
2023-04-29T03:47:59.265Z,14.07
2023-04-29T03:50:26.841Z,15.85
2023-04-29T03:52:54.417Z,16.90
2023-04-29T03:55:21.925Z,16.92
2023-04-29T03:57:49.504Z,15.30
2023-04-29T04:00:17.453Z,14.90
2023-04-29T04:02:45.679Z,15.35
2023-04-29T04:05:13.747Z,16.83
2023-04-29T04:07:41.327Z,16.83
2023-04-29T04:10:09.193Z,16.80
2023-04-29T04:12:36.789Z,16.73
2023-04-29T04:15:04.535Z,17.30
2023-04-29T04:17:32.081Z,17.65
2023-04-29T04:19:59.640Z,17.70
2023-04-29T04:22:27.157Z,17.20
2023-04-29T04:24:58.042Z,17.58
2023-04-29T04:27:25.698Z,18.13
2023-04-29T04:29:56.359Z,16.45
2023-04-29T04:32:23.992Z,17.63
2023-04-29T04:34:51.879Z,17.38
2023-04-29T04:37:19.441Z,17.35
2023-04-29T04:39:47.443Z,17.83
2023-04-29T04:42:15.112Z,16.83
2023-04-29T04:44:42.574Z,17.75
2023-04-29T04:47:11.692Z,17.45
2023-04-29T04:49:39.534Z,17.27
2023-04-29T04:52:07.158Z,17.90
2023-04-29T04:54:35.605Z,15.93
2023-04-29T04:57:06.331Z,16.85
2023-04-29T04:59:34.435Z,16.85
2023-04-29T05:02:01.980Z,17.08
2023-04-29T05:04:29.649Z,16.55
2023-04-29T05:06:57.271Z,16.67
2023-04-29T05:09:24.831Z,16.27
2023-04-29T05:11:52.502Z,16.10
2023-04-29T05:14:20.008Z,15.00
2023-04-29T05:16:47.608Z,14.98
2023-04-29T05:19:15.175Z,15.63
2023-04-29T05:21:42.646Z,15.38
2023-04-29T05:24:10.348Z,16.08
2023-04-29T05:26:38.542Z,16.48
2023-04-29T05:29:06.033Z,15.77
2023-04-29T05:31:33.651Z,14.73
2023-04-29T05:34:01.297Z,16.33
2023-04-29T05:36:29.162Z,15.85
2023-04-29T05:38:56.806Z,15.27
2023-04-29T05:41:25.182Z,16.05
2023-04-29T05:43:52.956Z,15.63
2023-04-29T05:46:20.811Z,16.63
2023-04-29T05:48:48.332Z,15.13
2023-04-29T05:51:17.332Z,15.00
2023-04-29T05:53:45.122Z,13.80
2023-04-29T05:56:12.716Z,15.90
2023-04-29T05:58:40.399Z,15.18
2023-04-29T06:01:07.943Z,15.85
2023-04-29T06:03:36.100Z,14.60
2023-04-29T06:06:04.589Z,14.10
2023-04-29T06:08:32.348Z,14.93
2023-04-29T06:10:59.808Z,13.85
2023-04-29T06:13:27.628Z,14.82
2023-04-29T06:15:55.140Z,15.07
2023-04-29T06:18:22.793Z,14.05
2023-04-29T06:20:52.143Z,14.00
2023-04-29T06:23:19.603Z,14.07
2023-04-29T06:25:47.160Z,14.23
2023-04-29T06:28:14.925Z,14.48
2023-04-29T06:30:42.470Z,12.88
2023-04-29T06:33:10.000Z,14.73
2023-04-29T06:35:41.344Z,14.32
2023-04-29T06:38:09.163Z,14.05
2023-04-29T06:40:36.724Z,13.65
2023-04-29T06:43:04.829Z,13.73
2023-04-29T06:45:32.968Z,13.00
2023-04-29T06:48:00.754Z,15.30
2023-04-29T06:50:28.866Z,13.73
2023-04-29T06:52:56.865Z,13.95
2023-04-29T06:55:24.505Z,13.82
2023-04-29T06:57:52.165Z,12.80
2023-04-29T07:00:21.453Z,13.30
2023-04-29T07:02:49.015Z,13.82
2023-04-29T07:05:16.710Z,14.02
2023-04-29T07:07:44.285Z,12.38
2023-04-29T07:10:11.786Z,13.70
2023-04-29T07:12:39.449Z,13.40
2023-04-29T07:15:07.854Z,13.00
2023-04-29T07:17:35.440Z,13.38
2023-04-29T07:20:04.335Z,13.85
2023-04-29T07:22:31.956Z,14.63
2023-04-29T07:24:59.538Z,13.82
2023-04-29T07:27:27.305Z,13.27
2023-04-29T07:29:54.895Z,13.57
2023-04-29T07:32:23.009Z,12.88
2023-04-29T07:34:50.564Z,13.13
2023-04-29T07:37:18.198Z,12.93
2023-04-29T07:39:46.164Z,13.60
2023-04-29T07:42:13.751Z,12.05
2023-04-29T07:44:41.574Z,13.05
2023-04-29T07:47:09.093Z,14.15
2023-04-29T07:49:36.912Z,12.10
2023-04-29T07:52:08.022Z,12.85
2023-04-29T07:54:38.639Z,13.10
2023-04-29T07:57:06.243Z,12.52
2023-04-29T07:59:34.102Z,12.30
2023-04-29T08:02:01.815Z,11.65
2023-04-29T08:04:29.657Z,12.13
2023-04-29T08:06:57.360Z,11.80
2023-04-29T08:09:24.893Z,12.52
2023-04-29T08:11:52.376Z,11.43
2023-04-29T08:14:19.959Z,11.55
2023-04-29T08:16:47.827Z,11.80
2023-04-29T08:19:15.293Z,11.45
2023-04-29T08:21:42.954Z,11.50
2023-04-29T08:24:10.669Z,11.15
2023-04-29T08:26:40.036Z,11.02
2023-04-29T08:29:07.859Z,11.07
2023-04-29T08:31:35.672Z,10.35
2023-04-29T08:34:03.242Z,10.18
2023-04-29T08:36:30.812Z,11.55
2023-04-29T08:38:58.393Z,10.77
2023-04-29T08:41:26.009Z,10.43
2023-04-29T08:43:53.632Z,10.93
2023-04-29T08:46:23.928Z,10.55
2023-04-29T08:48:52.556Z,11.32
2023-04-29T08:51:20.185Z,10.57
2023-04-29T08:53:58.696Z,10.88
2023-04-29T08:56:28.164Z,10.32
2023-04-29T08:58:59.142Z,10.60
2023-04-29T09:01:29.479Z,10.48
2023-04-29T09:04:14.932Z,10.23
2023-04-29T09:06:42.495Z,10.23
2023-04-29T09:09:10.542Z,9.52
2023-04-29T09:11:38.643Z,10.50
2023-04-29T09:14:06.702Z,9.02
2023-04-29T09:16:35.722Z,9.50
2023-04-29T09:19:03.295Z,9.13
2023-04-29T09:21:33.752Z,8.77
2023-04-29T09:24:03.542Z,9.23
2023-04-29T09:26:44.023Z,8.65
2023-04-29T09:29:18.506Z,8.27
2023-04-29T09:31:47.005Z,8.75
2023-04-29T09:34:15.111Z,9.63
2023-04-29T09:36:51.079Z,8.48
2023-04-29T09:39:20.411Z,9.38
2023-04-29T09:41:53.876Z,8.85
2023-04-29T09:44:25.145Z,8.13
2023-04-29T09:46:57.417Z,8.13
2023-04-29T09:49:26.600Z,8.02
2023-04-29T09:51:56.717Z,8.60
2023-04-29T09:54:28.544Z,8.00
2023-04-29T09:56:58.409Z,7.75
2023-04-29T09:59:26.634Z,7.60
2023-04-29T10:01:58.945Z,8.23
2023-04-29T10:04:28.084Z,8.25
2023-04-29T10:06:56.743Z,8.15
2023-04-29T10:09:24.874Z,7.93
2023-04-29T10:11:53.944Z,7.15
2023-04-29T10:14:26.393Z,6.80
2023-04-29T10:17:08.693Z,7.75
2023-04-29T10:19:40.190Z,7.68
2023-04-29T10:22:17.256Z,8.38
2023-04-29T10:24:46.015Z,7.03
2023-04-29T10:27:14.572Z,8.13
2023-04-29T10:29:44.661Z,7.10
2023-04-29T10:32:14.615Z,7.53
2023-04-29T10:34:43.644Z,8.00
2023-04-29T10:37:12.155Z,7.53
2023-04-29T10:39:48.227Z,7.25
2023-04-29T10:42:50.935Z,7.20
2023-04-29T10:45:24.131Z,6.65
2023-04-29T10:48:06.653Z,7.20
2023-04-29T10:50:46.912Z,7.10
2023-04-29T10:53:23.798Z,6.95
2023-04-29T10:55:59.939Z,7.07
2023-04-29T10:58:41.380Z,7.95
2023-04-29T11:01:11.532Z,6.82
2023-04-29T11:03:59.934Z,6.90
2023-04-29T11:06:36.586Z,7.10
2023-04-29T11:09:20.063Z,7.55
2023-04-29T11:11:58.968Z,7.10
2023-04-29T11:14:30.720Z,6.78
2023-04-29T11:17:03.577Z,6.90
2023-04-29T11:19:36.871Z,7.20
2023-04-29T11:22:10.187Z,6.32
2023-04-29T11:24:49.504Z,6.60
2023-04-29T11:27:18.875Z,7.60
2023-04-29T11:29:50.947Z,6.22
2023-04-29T11:32:23.323Z,6.75
2023-04-29T11:34:51.050Z,7.45
2023-04-29T11:37:23.744Z,6.32
2023-04-29T11:39:52.512Z,6.85
2023-04-29T11:42:23.642Z,6.78
2023-04-29T11:44:57.126Z,7.00
2023-04-29T11:50:10.317Z,5.95
2023-04-29T11:52:40.909Z,6.00
2023-04-29T11:55:12.365Z,5.35
2023-04-29T11:57:40.692Z,5.30
2023-04-29T12:00:13.139Z,5.53
2023-04-29T12:02:45.246Z,5.43
2023-04-29T12:05:13.723Z,5.68
2023-04-29T12:07:41.646Z,5.90
2023-04-29T12:10:11.440Z,5.57
2023-04-29T12:12:41.593Z,6.05
2023-04-29T12:15:10.568Z,6.30
2023-04-29T12:17:39.617Z,5.93
2023-04-29T12:20:11.510Z,6.25
2023-04-29T12:22:39.534Z,5.90
2023-04-29T12:25:08.119Z,6.43
2023-04-29T12:27:37.151Z,6.03
2023-04-29T12:30:09.749Z,5.78
2023-04-29T12:32:38.686Z,6.50
2023-04-29T12:35:07.488Z,5.53
2023-04-29T12:37:35.597Z,5.70
2023-04-29T12:40:03.842Z,5.95
2023-04-29T12:42:34.584Z,6.50
2023-04-29T12:45:02.112Z,7.05
2023-04-29T12:47:37.377Z,6.72
2023-04-29T12:50:07.520Z,6.10
2023-04-29T12:52:36.726Z,5.95
2023-04-29T12:55:05.028Z,6.30
2023-04-29T12:57:32.823Z,7.22
2023-04-29T13:00:00.520Z,5.65
2023-04-29T13:02:28.571Z,5.95
2023-04-29T13:04:56.790Z,6.75
2023-04-29T13:07:24.556Z,6.50
2023-04-29T13:09:52.075Z,6.43
2023-04-29T13:12:19.663Z,6.40
2023-04-29T13:14:47.108Z,5.88
2023-04-29T13:17:15.039Z,5.63
2023-04-29T13:19:51.527Z,5.65
2023-04-29T13:22:20.193Z,6.07
2023-04-29T13:24:47.885Z,6.00
2023-04-29T13:27:15.409Z,5.55
2023-04-29T13:29:42.889Z,5.75
2023-04-29T13:32:10.672Z,5.75
2023-04-29T13:34:38.248Z,6.10
2023-04-29T13:37:05.981Z,5.70
2023-04-29T13:39:37.909Z,5.65
2023-04-29T13:42:06.627Z,5.80
2023-04-29T13:44:48.636Z,6.18
2023-04-29T13:47:25.712Z,5.53
2023-04-29T13:50:25.528Z,5.05
2023-04-29T13:55:43.631Z,5.90
2023-04-29T13:58:43.841Z,6.15
2023-04-29T14:01:17.180Z,6.15
2023-04-29T14:03:35.952Z,5.93
2023-04-29T14:06:03.895Z,5.72
2023-04-29T14:08:31.555Z,5.40
2023-04-29T14:10:59.232Z,5.38
2023-04-29T14:13:26.949Z,5.60
2023-04-29T14:15:54.711Z,4.70
2023-04-29T14:18:22.309Z,5.32
2023-04-29T14:20:49.799Z,5.18
2023-04-29T14:23:17.387Z,5.45
2023-04-29T14:25:45.061Z,5.30
2023-04-29T14:28:12.870Z,5.10
2023-04-29T14:30:41.634Z,4.50
2023-04-29T14:33:09.232Z,5.38
2023-04-29T14:35:36.709Z,4.82
2023-04-29T14:38:04.534Z,5.13
2023-04-29T14:40:32.073Z,5.07
2023-04-29T14:42:59.698Z,4.68
2023-04-29T14:45:27.312Z,4.70
2023-04-29T14:47:54.800Z,4.82
2023-04-29T14:50:25.285Z,5.20
2023-04-29T14:52:52.790Z,4.90
2023-04-29T14:55:20.363Z,4.95
2023-04-29T14:57:48.152Z,5.18
2023-04-29T15:00:16.152Z,4.72
2023-04-29T15:02:43.889Z,5.10
2023-04-29T15:05:11.511Z,5.03
2023-04-29T15:07:39.015Z,4.93
2023-04-29T15:10:09.553Z,4.60
2023-04-29T15:12:37.141Z,4.60
2023-04-29T15:15:05.049Z,4.63
2023-04-29T15:17:32.624Z,4.38
2023-04-29T15:20:00.195Z,4.90
2023-04-29T15:22:27.632Z,4.47
2023-04-29T15:24:55.599Z,4.00
2023-04-29T15:27:23.235Z,4.40
2023-04-29T15:29:54.587Z,4.22
2023-04-29T15:32:22.428Z,3.90
2023-04-29T15:34:49.999Z,3.75
2023-04-29T15:37:17.506Z,3.95
2023-04-29T15:39:45.025Z,4.50
2023-04-29T15:42:12.737Z,3.40
2023-04-29T15:44:40.335Z,4.05
2023-04-29T15:47:07.848Z,3.72
2023-04-29T15:49:35.504Z,4.07
2023-04-29T15:52:02.962Z,3.75
2023-04-29T15:54:30.879Z,4.25
2023-04-29T15:56:58.669Z,3.78
2023-04-29T15:59:26.173Z,4.10
2023-04-29T16:01:53.709Z,4.38
2023-04-29T16:04:21.304Z,4.15
2023-04-29T16:06:48.901Z,3.75
2023-04-29T16:09:16.396Z,4.32
2023-04-29T16:11:44.035Z,4.38
2023-04-29T16:14:11.684Z,3.65
2023-04-29T16:16:39.420Z,3.78
2023-04-29T16:19:06.954Z,3.55
2023-04-29T16:21:34.855Z,4.03
2023-04-29T16:24:02.421Z,3.85
2023-04-29T16:26:30.494Z,3.83
2023-04-29T16:28:58.104Z,4.50
2023-04-29T16:31:25.791Z,3.85
2023-04-29T16:33:55.564Z,3.92
2023-04-29T16:36:23.827Z,3.67
2023-04-29T16:38:55.204Z,3.88
2023-04-29T16:41:23.346Z,3.55
2023-04-29T16:43:51.116Z,3.88
2023-04-29T16:46:18.990Z,3.83
2023-04-29T16:48:46.798Z,3.78
2023-04-29T16:51:14.738Z,3.90
2023-04-29T16:54:02.462Z,3.63
2023-04-29T16:56:30.057Z,3.38
2023-04-29T16:58:57.788Z,4.07
2023-04-29T17:01:25.633Z,3.85
2023-04-29T17:03:53.274Z,3.63
2023-04-29T17:06:20.861Z,3.83
2023-04-29T17:08:51.272Z,3.50
2023-04-29T17:11:19.152Z,3.28
2023-04-29T17:13:46.997Z,4.13
2023-04-29T17:16:15.090Z,3.88
2023-04-29T17:18:43.189Z,3.40
2023-04-29T17:21:10.846Z,3.35
2023-04-29T17:23:38.720Z,4.30
2023-04-29T17:26:07.538Z,3.70
2023-04-29T17:28:35.269Z,3.90
2023-04-29T17:31:02.930Z,3.90
2023-04-29T17:33:36.210Z,3.50
2023-04-29T17:36:06.073Z,3.90
2023-04-29T17:38:33.651Z,3.80
2023-04-29T17:41:02.180Z,3.10
2023-04-29T17:43:32.528Z,3.80
2023-04-29T17:46:00.242Z,4.85
2023-04-29T17:48:28.117Z,4.40
2023-04-29T17:50:55.752Z,3.63
2023-04-29T17:53:23.470Z,3.72
2023-04-29T17:55:50.957Z,3.88
2023-04-29T17:58:18.766Z,4.00
2023-04-29T18:00:47.194Z,4.10
2023-04-29T18:03:15.072Z,3.80
2023-04-29T18:05:42.760Z,3.20
2023-04-29T18:08:10.280Z,4.13
2023-04-29T18:10:38.036Z,3.97
2023-04-29T18:13:05.767Z,4.13
2023-04-29T18:15:33.355Z,3.90
2023-04-29T18:18:00.912Z,4.30
2023-04-29T18:20:28.498Z,4.45
2023-04-29T18:22:56.096Z,3.97
2023-04-29T18:25:23.665Z,3.83
2023-04-29T18:27:52.722Z,3.83
2023-04-29T18:30:24.595Z,3.35
2023-04-29T18:32:52.126Z,3.55
2023-04-29T18:35:19.602Z,3.70
2023-04-29T18:37:47.429Z,3.95
2023-04-29T18:40:15.330Z,3.53
2023-04-29T18:42:43.341Z,3.58
2023-04-29T18:45:11.166Z,3.78
2023-04-29T18:47:38.704Z,3.50
2023-04-29T18:50:06.739Z,3.58
2023-04-29T18:52:34.759Z,3.58
2023-04-29T18:55:02.273Z,3.55
2023-04-29T18:57:30.102Z,3.55
2023-04-29T18:59:57.820Z,4.20
2023-04-29T19:02:25.356Z,4.15
2023-04-29T19:04:52.928Z,4.10
2023-04-29T19:07:20.644Z,4.25
2023-04-29T19:09:48.124Z,3.58
2023-04-29T19:12:15.605Z,4.00
2023-04-29T19:14:43.186Z,3.90
2023-04-29T19:17:10.760Z,3.85
2023-04-29T19:19:38.260Z,3.50
2023-04-29T19:22:07.531Z,4.20
2023-04-29T19:24:37.129Z,3.90
2023-04-29T19:27:04.743Z,4.15
2023-04-29T19:29:32.324Z,3.92
2023-04-29T19:31:59.918Z,3.70
2023-04-29T19:34:27.438Z,4.00
2023-04-29T19:36:55.038Z,3.85
2023-04-29T19:39:22.697Z,4.80
2023-04-29T19:41:50.273Z,4.72
2023-04-29T19:44:17.790Z,4.35
2023-04-29T19:46:45.511Z,4.65
2023-04-29T19:49:13.569Z,4.60
2023-04-29T19:51:41.606Z,4.03
2023-04-29T19:54:09.745Z,4.30
2023-04-29T19:56:37.218Z,4.65
2023-04-29T19:59:04.783Z,5.15
2023-04-29T20:01:32.237Z,6.72
2023-04-29T20:03:59.897Z,7.10
2023-04-29T20:06:27.529Z,7.28
2023-04-29T20:08:55.004Z,6.65
2023-04-29T20:11:23.990Z,7.40
2023-04-29T20:13:52.455Z,6.95
2023-04-29T20:16:20.141Z,7.47
2023-04-29T20:18:48.041Z,6.82
2023-04-29T20:21:15.680Z,6.88
2023-04-29T20:23:43.194Z,7.45
2023-04-29T20:26:11.114Z,7.45
2023-04-29T20:28:39.343Z,6.95
2023-04-29T20:31:08.671Z,7.40
2023-04-29T20:33:36.329Z,7.25
2023-04-29T20:36:06.933Z,7.28
2023-04-29T20:38:37.864Z,7.03
2023-04-29T20:41:08.509Z,6.57
2023-04-29T20:43:36.208Z,6.28
2023-04-29T20:46:03.772Z,7.85
2023-04-29T20:48:31.302Z,7.53
2023-04-29T20:50:59.007Z,6.90
2023-04-29T20:53:26.545Z,7.03
2023-04-29T20:55:54.131Z,7.13
2023-04-29T20:58:21.870Z,7.47
2023-04-29T21:00:49.455Z,6.50
2023-04-29T21:03:17.023Z,7.07
2023-04-29T21:05:45.069Z,7.15
2023-04-29T21:08:12.605Z,6.95
2023-04-29T21:10:40.113Z,7.03
2023-04-29T21:13:07.749Z,6.65
2023-04-29T21:15:36.153Z,6.45
2023-04-29T21:18:04.758Z,7.00
2023-04-29T21:20:32.565Z,6.88
2023-04-29T21:23:00.137Z,6.55
2023-04-29T21:25:27.641Z,6.75
2023-04-29T21:27:55.686Z,7.50
2023-04-29T21:30:23.556Z,7.95
2023-04-29T21:32:51.228Z,7.45
2023-04-29T21:35:19.079Z,7.82
2023-04-29T21:37:47.296Z,6.90
2023-04-29T21:40:14.955Z,6.07
2023-04-29T21:42:44.502Z,7.05
2023-04-29T21:45:18.270Z,6.03
2023-04-29T21:47:46.059Z,5.80
2023-04-29T21:50:13.734Z,6.20
2023-04-29T21:52:41.795Z,5.90
2023-04-29T21:55:09.833Z,5.68
2023-04-29T21:57:44.072Z,5.40
2023-04-29T22:00:33.055Z,5.60
2023-04-29T22:03:02.395Z,4.85
2023-04-29T22:05:30.590Z,5.40
2023-04-29T22:08:00.236Z,5.10
2023-04-29T22:10:28.202Z,4.93
2023-04-29T22:12:56.363Z,4.45
2023-04-29T22:15:28.795Z,5.13
2023-04-29T22:17:57.728Z,4.88
2023-04-29T22:20:27.236Z,4.88
2023-04-29T22:22:55.527Z,4.80
2023-04-29T22:25:23.260Z,5.00
2023-04-29T22:27:52.349Z,4.95
2023-04-29T22:30:21.036Z,4.40
2023-04-29T22:32:48.649Z,4.30
2023-04-29T22:35:16.405Z,4.05
2023-04-29T22:37:43.984Z,3.90
2023-04-29T22:40:12.945Z,3.90
2023-04-29T22:42:42.239Z,3.78
2023-04-29T22:45:12.671Z,3.63
2023-04-29T22:47:40.513Z,3.85
2023-04-29T22:50:08.498Z,3.78
2023-04-29T22:52:36.370Z,3.22
2023-04-29T22:55:04.058Z,3.25
2023-04-29T22:57:32.364Z,3.40
2023-04-29T23:00:00.312Z,3.50
2023-04-29T23:02:29.564Z,3.08
2023-04-29T23:04:58.325Z,3.28
2023-04-29T23:07:26.396Z,3.05
2023-04-29T23:09:54.418Z,3.65
2023-04-29T23:12:22.563Z,3.33
2023-04-29T23:14:51.138Z,3.03
2023-04-29T23:17:18.855Z,3.35
2023-04-29T23:19:46.460Z,3.88
2023-04-29T23:22:13.955Z,3.75
2023-04-29T23:24:41.573Z,3.63
2023-04-29T23:27:09.603Z,4.05
2023-04-29T23:29:37.074Z,3.78
2023-04-29T23:32:04.715Z,3.58
2023-04-29T23:34:32.845Z,3.80
2023-04-29T23:37:01.653Z,3.58
2023-04-29T23:39:29.297Z,3.67
2023-04-29T23:41:56.820Z,3.40
2023-04-29T23:44:25.446Z,3.10
2023-04-29T23:46:53.767Z,3.40
2023-04-29T23:49:21.539Z,3.22
2023-04-29T23:51:49.080Z,2.95
2023-04-29T23:54:16.556Z,3.13
2023-04-29T23:56:44.215Z,2.75
2023-04-29T23:59:11.853Z,3.45
